Time;durP1;ratioP1;P1;durP2;ratioP2;P2;SDS_P1;SDS_P2;PMS_P1;PMS_P2;Temp;Humidity;BMP_temperature;BMP_pressure;BME280_temperature;BME280_humidity;BME280_pressure;Samples;Min_cycle;Max_cycle;Signal;HPM_P1;HPM_P2
2022/10/10 00:01:18;;;;;;;0.00;0.00;;;9.80;99.90;;;;;;5035654;28;20099;-80
2022/10/10 00:03:45;;;;;;;0.00;0.00;;;7.70;99.90;;;;;;5051439;28;20045;-79
2022/10/10 00:06:12;;;;;;;0.17;0.17;;;7.70;99.90;;;;;;5051242;28;20046;-80
2022/10/10 00:08:38;;;;;;;0.00;0.00;;;7.60;99.90;;;;;;5051506;28;20107;-80
2022/10/10 00:11:04;;;;;;;0.00;0.00;;;7.60;99.90;;;;;;5035009;28;20046;-80
2022/10/10 00:13:33;;;;;;;0.00;0.00;;;7.60;99.90;;;;;;5050875;28;20049;-80
2022/10/10 00:15:58;;;;;;;0.00;0.00;;;7.60;99.90;;;;;;5068895;28;20045;-80
2022/10/10 00:18:25;;;;;;;0.08;0.00;;;8.00;99.90;;;;;;5034715;28;20041;-80
2022/10/10 00:20:51;;;;;;;0.00;0.00;;;8.50;99.90;;;;;;5051433;28;20037;-80
2022/10/10 00:23:18;;;;;;;0.00;0.00;;;8.30;99.90;;;;;;5051281;28;20053;-80
2022/10/10 00:25:44;;;;;;;0.00;0.00;;;7.60;99.90;;;;;;5051325;28;20081;-80
2022/10/10 00:28:11;;;;;;;0.00;0.00;;;7.50;99.90;;;;;;5051083;28;20060;-80
2022/10/10 00:30:37;;;;;;;0.00;0.00;;;8.10;99.90;;;;;;5034766;28;20053;-80
2022/10/10 00:33:03;;;;;;;0.08;0.08;;;7.50;99.90;;;;;;5034309;28;20060;-80
2022/10/10 00:35:29;;;;;;;0.00;0.00;;;7.80;99.90;;;;;;5034189;28;20396;-80
2022/10/10 00:37:54;;;;;;;0.00;0.00;;;7.80;99.90;;;;;;5067146;28;20049;-80
2022/10/10 00:40:20;;;;;;;0.00;0.00;;;8.10;99.90;;;;;;5034040;28;20529;-80
2022/10/10 00:42:46;;;;;;;0.00;0.00;;;7.50;99.90;;;;;;5034611;28;20045;-80
2022/10/10 00:45:27;;;;;;;0.00;0.00;;;7.70;99.90;;;;;;5050819;28;20057;-80
2022/10/10 00:48:01;;;;;;;0.00;0.00;;;7.50;99.90;;;;;;5033981;28;20041;-80
2022/10/10 00:50:28;;;;;;;0.17;0.00;;;8.00;99.90;;;;;;5066712;28;20136;-79
2022/10/10 00:52:55;;;;;;;0.00;0.00;;;8.30;99.90;;;;;;5050064;28;20053;-79
2022/10/10 00:55:20;;;;;;;0.00;0.00;;;7.40;99.90;;;;;;5050484;28;20055;-79
2022/10/10 00:57:47;;;;;;;0.00;0.00;;;8.30;99.90;;;;;;5050415;28;20050;-79
2022/10/10 01:00:13;;;;;;;0.00;0.00;;;7.50;99.90;;;;;;5049848;28;20079;-80
2022/10/10 01:02:40;;;;;;;0.00;0.00;;;7.50;99.90;;;;;;5033779;28;20393;-80
2022/10/10 01:05:06;;;;;;;0.00;0.00;;;8.10;99.90;;;;;;5033481;28;20053;-80
2022/10/10 01:07:32;;;;;;;0.00;0.00;;;7.50;99.90;;;;;;5050217;28;20045;-80
2022/10/10 01:10:05;;;;;;;0.00;0.00;;;7.20;99.90;;;;;;5033778;28;20048;-80
2022/10/10 01:12:49;;;;;;;0.00;0.00;;;7.50;99.90;;;;;;5033731;28;20068;-80
2022/10/10 01:15:42;;;;;;;0.00;0.00;;;7.50;99.90;;;;;;5050187;28;20091;-79
2022/10/10 01:18:27;;;;;;;0.00;0.00;;;7.60;99.90;;;;;;5050470;28;20485;-80
2022/10/10 01:21:12;;;;;;;0.10;0.10;;;7.60;99.90;;;;;;5050253;28;20050;-80
2022/10/10 01:23:56;;;;;;;0.00;0.00;;;7.60;99.90;;;;;;5050112;28;20499;-80
2022/10/10 01:26:38;;;;;;;0.10;0.10;;;7.80;99.90;;;;;;5066962;28;20123;-80
2022/10/10 01:29:12;;;;;;;0.00;0.00;;;10.30;99.90;;;;;;5050209;28;20049;-79
2022/10/10 01:31:41;;;;;;;0.52;0.00;;;8.90;99.90;;;;;;5066300;28;20037;-80
2022/10/10 01:34:19;;;;;;;0.00;0.00;;;7.70;99.90;;;;;;5049487;28;20056;-80
2022/10/10 01:37:16;;;;;;;0.00;0.00;;;9.00;99.90;;;;;;5050446;28;20076;-80
2022/10/10 01:39:44;;;;;;;0.00;0.00;;;7.90;99.90;;;;;;5033405;28;20109;-80
2022/10/10 01:42:22;;;;;;;0.00;0.00;;;8.30;99.90;;;;;;5033138;28;20049;-80
2022/10/10 01:44:51;;;;;;;0.00;0.00;;;8.10;99.90;;;;;;5034399;28;20054;-80
2022/10/10 01:47:17;;;;;;;0.22;0.22;;;10.20;99.90;;;;;;5034346;28;20067;-80
2022/10/10 01:49:47;;;;;;;0.00;0.00;;;9.50;99.90;;;;;;5049600;28;20049;-80
2022/10/10 01:52:47;;;;;;;0.00;0.00;;;9.60;99.90;;;;;;5032886;28;20153;-80
2022/10/10 01:55:45;;;;;;;0.00;0.00;;;8.30;99.90;;;;;;5033668;28;20136;-80
2022/10/10 01:58:25;;;;;;;0.00;0.00;;;8.30;99.90;;;;;;5057065;28;20052;-80
2022/10/10 02:01:05;;;;;;;0.00;0.00;;;8.30;99.90;;;;;;5036337;28;20049;-80
2022/10/10 02:03:36;;;;;;;0.35;0.00;;;8.30;99.90;;;;;;5053329;28;20077;-80
2022/10/10 02:06:16;;;;;;;1.48;0.00;;;8.30;99.90;;;;;;5036333;28;20524;-80
2022/10/10 02:08:49;;;;;;;0.32;0.25;;;8.30;99.90;;;;;;5036439;28;20053;-79
2022/10/10 02:11:15;;;;;;;0.00;0.00;;;8.30;99.90;;;;;;5037331;28;20049;-80
2022/10/10 02:13:55;;;;;;;0.25;0.00;;;8.30;99.90;;;;;;5040312;28;20485;-79
2022/10/10 02:16:28;;;;;;;0.00;0.00;;;9.00;99.90;;;;;;5040092;28;20516;-80
2022/10/10 02:18:58;;;;;;;0.00;0.00;;;8.00;99.90;;;;;;5040609;28;20045;-80
2022/10/10 02:21:25;;;;;;;0.00;0.00;;;8.40;99.90;;;;;;5040413;28;20045;-80
2022/10/10 02:23:54;;;;;;;0.00;0.00;;;8.10;99.90;;;;;;5039978;28;20060;-80
2022/10/10 02:26:22;;;;;;;0.30;0.20;;;8.40;99.90;;;;;;5039584;28;20056;-80
2022/10/10 02:29:03;;;;;;;0.03;0.03;;;8.40;99.90;;;;;;5040199;28;20040;-80
2022/10/10 02:31:44;;;;;;;0.03;0.03;;;8.30;99.90;;;;;;5039767;28;20049;-80
2022/10/10 02:34:17;;;;;;;0.00;0.00;;;8.40;99.90;;;;;;5040003;28;20049;-80
2022/10/10 02:36:48;;;;;;;0.00;0.00;;;8.40;99.90;;;;;;5056652;28;20060;-80
2022/10/10 02:39:16;;;;;;;0.30;0.00;;;8.80;99.90;;;;;;5040157;28;20044;-79
2022/10/10 02:41:44;;;;;;;0.00;0.00;;;8.30;99.90;;;;;;5055973;28;20485;-80
2022/10/10 02:44:12;;;;;;;6.82;0.65;;;8.30;99.90;;;;;;5039912;28;20053;-80
2022/10/10 02:46:38;;;;;;;0.00;0.00;;;8.40;99.90;;;;;;5039612;28;20045;-80
2022/10/10 02:49:07;;;;;;;0.00;0.00;;;8.30;99.90;;;;;;5039009;28;20067;-80
2022/10/10 02:51:33;;;;;;;0.00;0.00;;;8.30;99.90;;;;;;5056168;28;20136;-80
2022/10/10 02:53:59;;;;;;;0.00;0.00;;;8.40;99.90;;;;;;5039334;28;20397;-80
2022/10/10 02:56:25;;;;;;;0.00;0.00;;;8.10;99.90;;;;;;5055932;28;20044;-80
2022/10/10 02:58:51;;;;;;;0.00;0.00;;;7.90;99.90;;;;;;5039450;28;20048;-80
2022/10/10 03:01:16;;;;;;;0.85;0.40;;;8.40;99.90;;;;;;5055875;28;20041;-80
2022/10/10 03:03:42;;;;;;;0.00;0.00;;;9.50;99.90;;;;;;5055838;28;20496;-80
2022/10/10 03:06:08;;;;;;;0.00;0.00;;;8.40;99.90;;;;;;5056090;28;20044;-80
2022/10/10 03:08:36;;;;;;;0.00;0.00;;;8.40;99.90;;;;;;5055698;28;20045;-80
2022/10/10 03:11:02;;;;;;;0.43;0.10;;;8.40;99.90;;;;;;5039053;28;20049;-79
2022/10/10 03:13:27;;;;;;;0.00;0.00;;;8.20;99.90;;;;;;5039069;28;20060;-80
2022/10/10 03:15:53;;;;;;;0.00;0.00;;;8.40;99.90;;;;;;5055575;28;20045;-80
2022/10/10 03:18:19;;;;;;;0.65;0.45;;;8.50;99.90;;;;;;5055581;28;20112;-80
2022/10/10 03:20:54;;;;;;;0.30;0.00;;;8.50;99.90;;;;;;5038560;28;20055;-80
2022/10/10 03:23:21;;;;;;;0.00;0.00;;;8.40;99.90;;;;;;5038190;28;20108;-80
2022/10/10 03:25:47;;;;;;;0.00;0.00;;;8.60;99.90;;;;;;5055577;28;20049;-80
2022/10/10 03:28:13;;;;;;;0.00;0.00;;;8.10;99.90;;;;;;5039148;28;20052;-80
2022/10/10 03:30:39;;;;;;;0.00;0.00;;;8.60;99.90;;;;;;5055370;28;20496;-80
2022/10/10 03:33:05;;;;;;;0.00;0.00;;;8.60;99.90;;;;;;5055974;28;20092;-81
2022/10/10 03:35:32;;;;;;;0.00;0.00;;;8.60;99.90;;;;;;5039372;28;20083;-80
2022/10/10 03:37:58;;;;;;;0.65;0.32;;;8.70;99.90;;;;;;5055499;28;20048;-80
2022/10/10 03:40:25;;;;;;;0.00;0.00;;;8.70;99.90;;;;;;5038649;28;20060;-80
2022/10/10 03:42:51;;;;;;;7.70;0.40;;;8.80;99.90;;;;;;5055200;28;20049;-80
2022/10/10 03:45:17;;;;;;;0.00;0.00;;;9.20;99.90;;;;;;5038061;28;20052;-80
2022/10/10 03:47:42;;;;;;;0.10;0.10;;;9.10;99.90;;;;;;5038523;28;20135;-80
2022/10/10 03:50:09;;;;;;;0.55;0.00;;;8.80;99.90;;;;;;5054439;28;20378;-80
2022/10/10 03:52:35;;;;;;;0.00;0.00;;;8.80;99.90;;;;;;5038474;28;20052;-80
2022/10/10 03:55:01;;;;;;;0.10;0.10;;;8.60;99.90;;;;;;5054825;28;20045;-80
2022/10/10 03:57:26;;;;;;;0.30;0.30;;;8.60;99.90;;;;;;5054843;28;20045;-80
2022/10/10 03:59:52;;;;;;;0.00;0.00;;;8.60;99.90;;;;;;5038055;28;20048;-80
2022/10/10 04:02:18;;;;;;;0.00;0.00;;;8.60;99.90;;;;;;5054698;28;20099;-80
2022/10/10 04:04:43;;;;;;;0.00;0.00;;;8.70;99.90;;;;;;5038180;28;20131;-80
2022/10/10 04:07:09;;;;;;;0.52;0.30;;;8.80;99.90;;;;;;5055051;28;20049;-80
2022/10/10 04:09:34;;;;;;;0.20;0.10;;;8.80;99.90;;;;;;5038104;28;20059;-79
2022/10/10 04:12:00;;;;;;;0.45;0.45;;;8.50;99.90;;;;;;5054691;28;20033;-80
2022/10/10 04:14:26;;;;;;;0.13;0.13;;;8.70;99.90;;;;;;5054447;28;20381;-80
2022/10/10 04:16:52;;;;;;;0.00;0.00;;;7.90;99.90;;;;;;5054410;28;20045;-80
2022/10/10 04:19:17;;;;;;;0.00;0.00;;;8.60;99.90;;;;;;5037686;28;20412;-80
2022/10/10 04:21:43;;;;;;;0.00;0.00;;;8.50;99.90;;;;;;5037758;28;20055;-79
2022/10/10 04:24:09;;;;;;;0.00;0.00;;;8.60;99.90;;;;;;5038012;28;20444;-79
2022/10/10 04:26:34;;;;;;;0.10;0.10;;;8.70;99.90;;;;;;5054469;28;20129;-79
2022/10/10 04:29:00;;;;;;;0.00;0.00;;;8.60;99.90;;;;;;5054242;28;20045;-80
2022/10/10 04:31:26;;;;;;;0.00;0.00;;;9.00;99.90;;;;;;5037780;28;20495;-80
2022/10/10 04:33:52;;;;;;;0.00;0.00;;;8.70;99.90;;;;;;5038234;28;20045;-80
2022/10/10 04:36:17;;;;;;;0.22;0.08;;;8.90;99.90;;;;;;5052936;28;20044;-80
2022/10/10 04:38:43;;;;;;;0.00;0.00;;;9.20;99.90;;;;;;5054081;28;20497;-80
2022/10/10 04:41:09;;;;;;;0.20;0.10;;;9.10;99.90;;;;;;5053884;28;20041;-80
2022/10/10 04:43:35;;;;;;;1.30;0.00;;;8.60;99.90;;;;;;5054192;28;20059;-80
2022/10/10 04:46:01;;;;;;;0.00;0.00;;;8.60;99.90;;;;;;5054376;28;20098;-80
2022/10/10 04:48:26;;;;;;;0.10;0.05;;;8.60;99.90;;;;;;5037383;28;20041;-81
2022/10/10 04:50:53;;;;;;;0.00;0.00;;;9.00;99.90;;;;;;4997875;28;20112;-80
2022/10/10 04:53:20;;;;;;;0.10;0.10;;;8.60;99.90;;;;;;4996845;28;20501;-79
2022/10/10 04:55:45;;;;;;;0.00;0.00;;;8.60;99.90;;;;;;5013707;28;20132;-79
2022/10/10 04:58:11;;;;;;;11.20;0.90;;;8.50;99.90;;;;;;5013857;28;20508;-79
2022/10/10 05:00:38;;;;;;;5.88;0.52;;;8.60;99.90;;;;;;5013956;28;20437;-80
2022/10/10 05:03:04;;;;;;;0.00;0.00;;;8.50;99.90;;;;;;5013982;28;20042;-80
2022/10/10 05:05:30;;;;;;;0.00;0.00;;;9.20;99.90;;;;;;4998462;28;20089;-79
2022/10/10 05:07:56;;;;;;;2.05;0.28;;;8.20;99.90;;;;;;4998143;28;20528;-79
2022/10/10 05:10:25;;;;;;;0.17;0.00;;;8.70;99.90;;;;;;5014644;28;20042;-80
2022/10/10 05:12:51;;;;;;;0.00;0.00;;;9.80;99.90;;;;;;4997587;28;20477;-80
2022/10/10 05:15:18;;;;;;;0.00;0.00;;;8.20;99.90;;;;;;4997679;28;20104;-80
2022/10/10 05:17:43;;;;;;;0.03;0.00;;;8.80;99.90;;;;;;5013758;28;20050;-80
2022/10/10 05:20:10;;;;;;;0.57;0.00;;;8.80;99.90;;;;;;5012608;28;20580;-80
2022/10/10 05:22:35;;;;;;;0.10;0.10;;;8.50;99.90;;;;;;5013797;28;20050;-80
2022/10/10 05:25:01;;;;;;;0.00;0.00;;;8.40;99.90;;;;;;5013595;28;20502;-79
2022/10/10 05:27:27;;;;;;;0.00;0.00;;;8.40;99.90;;;;;;5013559;28;20077;-79
2022/10/10 05:29:54;;;;;;;0.00;0.00;;;8.10;99.90;;;;;;4997138;28;20050;-82
2022/10/10 05:32:21;;;;;;;1.30;0.22;;;8.40;99.90;;;;;;4997180;28;20056;-80
2022/10/10 05:34:47;;;;;;;0.00;0.00;;;9.90;99.90;;;;;;4997096;28;20141;-80
2022/10/10 05:37:13;;;;;;;0.15;0.08;;;8.00;99.90;;;;;;5013478;28;20544;-80
2022/10/10 05:39:39;;;;;;;0.57;0.17;;;8.30;99.90;;;;;;4996796;28;20046;-80
2022/10/10 05:42:04;;;;;;;0.00;0.00;;;8.30;99.90;;;;;;5013339;28;20058;-81
2022/10/10 05:44:32;;;;;;;0.00;0.00;;;8.30;99.90;;;;;;5013280;28;20076;-81
2022/10/10 05:46:58;;;;;;;0.08;0.08;;;8.20;99.90;;;;;;4996639;28;20056;-81
2022/10/10 05:49:24;;;;;;;0.30;0.17;;;8.20;99.90;;;;;;5012519;28;20053;-81
2022/10/10 05:51:49;;;;;;;0.05;0.05;;;8.30;99.90;;;;;;5036550;28;20135;-83
2022/10/10 05:54:15;;;;;;;0.65;0.22;;;8.20;99.90;;;;;;5052587;28;20122;-80
2022/10/10 05:56:41;;;;;;;0.20;0.10;;;7.50;99.90;;;;;;5052745;28;20036;-81
2022/10/10 05:59:06;;;;;;;0.20;0.20;;;8.20;99.90;;;;;;5036304;28;20041;-81
2022/10/10 06:01:32;;;;;;;0.00;0.00;;;8.20;99.90;;;;;;5037014;28;20057;-81
2022/10/10 06:03:57;;;;;;;0.00;0.00;;;8.10;99.90;;;;;;5036103;28;20144;-80
2022/10/10 06:06:24;;;;;;;0.00;0.00;;;8.00;99.90;;;;;;5052854;28;20057;-81
2022/10/10 06:08:51;;;;;;;0.57;0.25;;;8.20;99.90;;;;;;5052826;28;20133;-80
2022/10/10 06:11:18;;;;;;;0.00;0.00;;;8.50;99.90;;;;;;5036225;28;20049;-81
2022/10/10 06:13:44;;;;;;;0.00;0.00;;;8.00;99.90;;;;;;5036132;28;20071;-82
2022/10/10 06:16:10;;;;;;;0.00;0.00;;;8.30;99.90;;;;;;5052397;28;20057;-81
2022/10/10 06:18:36;;;;;;;0.30;0.30;;;8.30;99.90;;;;;;5035992;28;20477;-84
2022/10/10 06:21:04;;;;;;;0.00;0.00;;;8.30;99.90;;;;;;5035964;28;20374;-82
2022/10/10 06:23:29;;;;;;;0.25;0.10;;;8.30;99.90;;;;;;5035977;28;20044;-82
2022/10/10 06:25:55;;;;;;;0.00;0.00;;;9.20;99.90;;;;;;5036387;28;20053;-82
2022/10/10 06:28:21;;;;;;;0.65;0.17;;;8.70;99.90;;;;;;5035937;28;20056;-82
2022/10/10 06:30:49;;;;;;;0.00;0.00;;;8.60;99.90;;;;;;5052987;28;20049;-81
2022/10/10 06:33:17;;;;;;;0.73;0.00;;;8.50;99.90;;;;;;5035837;28;20060;-82
2022/10/10 06:35:45;;;;;;;0.00;0.00;;;8.40;99.90;;;;;;5035866;28;20103;-81
2022/10/10 06:38:12;;;;;;;0.00;0.00;;;8.50;99.90;;;;;;5052442;28;20048;-81
2022/10/10 06:40:38;;;;;;;0.13;0.00;;;8.00;99.90;;;;;;5035988;28;20080;-81
2022/10/10 06:43:10;;;;;;;0.00;0.00;;;9.00;99.90;;;;;;5052722;28;20044;-82
2022/10/10 06:45:40;;;;;;;0.00;0.00;;;8.60;99.90;;;;;;5052631;28;20496;-82
2022/10/10 06:48:07;;;;;;;0.00;0.00;;;8.70;99.90;;;;;;5041040;28;20067;-82
2022/10/10 06:50:33;;;;;;;0.00;0.00;;;8.70;99.90;;;;;;5043851;28;20123;-80
2022/10/10 06:52:58;;;;;;;0.00;0.00;;;9.00;99.90;;;;;;5055734;28;20477;-81
2022/10/10 06:55:24;;;;;;;0.00;0.00;;;9.30;99.90;;;;;;5036143;28;20132;-81
2022/10/10 06:57:50;;;;;;;0.03;0.00;;;8.90;99.90;;;;;;5052698;28;20052;-81
2022/10/10 07:00:16;;;;;;;0.00;0.00;;;9.00;99.90;;;;;;5038971;28;20132;-80
2022/10/10 07:02:43;;;;;;;0.10;0.10;;;9.10;99.90;;;;;;5056081;28;20084;-80
2022/10/10 07:05:10;;;;;;;1.23;0.20;;;9.20;99.90;;;;;;5039185;28;20488;-81
2022/10/10 07:07:37;;;;;;;0.00;0.00;;;9.40;99.90;;;;;;5039438;28;20048;-81
2022/10/10 07:10:04;;;;;;;0.00;0.00;;;9.50;99.90;;;;;;5056110;28;20052;-81
2022/10/10 07:12:29;;;;;;;0.00;0.00;;;9.60;99.90;;;;;;5055814;28;20504;-81
2022/10/10 07:14:55;;;;;;;0.00;0.00;;;9.70;99.90;;;;;;5055894;28;20044;-82
2022/10/10 07:17:21;;;;;;;0.00;0.00;;;9.70;99.90;;;;;;5055751;28;20449;-81
2022/10/10 07:19:46;;;;;;;0.00;0.00;;;9.60;99.90;;;;;;5039061;28;20107;-82
2022/10/10 07:22:12;;;;;;;0.00;0.00;;;9.90;99.90;;;;;;5039359;28;20080;-81
2022/10/10 07:24:38;;;;;;;0.28;0.00;;;10.00;99.90;;;;;;5039174;28;20049;-82
2022/10/10 07:27:04;;;;;;;0.00;0.00;;;10.10;99.90;;;;;;5038906;28;20076;-82
2022/10/10 07:29:30;;;;;;;0.20;0.20;;;10.20;99.90;;;;;;5038975;28;20041;-82
2022/10/10 07:31:56;;;;;;;0.00;0.00;;;9.90;99.90;;;;;;5054906;28;20057;-81
2022/10/10 07:34:22;;;;;;;0.00;0.00;;;11.20;99.90;;;;;;5055170;28;20045;-82
2022/10/10 07:36:49;;;;;;;0.30;0.30;;;11.80;99.90;;;;;;5055410;28;20095;-81
2022/10/10 07:39:22;;;;;;;0.00;0.00;;;12.50;99.90;;;;;;5038717;28;20053;-81
2022/10/10 07:41:49;;;;;;;0.65;0.30;;;10.50;99.90;;;;;;5037867;28;20061;-82
2022/10/10 07:44:15;;;;;;;6.43;1.00;;;10.30;99.90;;;;;;5038537;28;20493;-81
2022/10/10 07:46:41;;;;;;;0.00;0.00;;;10.60;99.90;;;;;;5055229;28;20468;-81
2022/10/10 07:49:06;;;;;;;0.00;0.00;;;11.30;99.90;;;;;;5038043;28;20401;-81
2022/10/10 07:51:32;;;;;;;0.25;0.25;;;11.30;99.90;;;;;;5055059;28;20052;-81
2022/10/10 07:53:58;;;;;;;0.70;0.47;;;11.20;99.90;;;;;;5055061;28;20128;-82
2022/10/10 07:56:24;;;;;;;0.00;0.00;;;10.80;99.90;;;;;;5054996;28;20454;-81
2022/10/10 07:58:49;;;;;;;0.10;0.10;;;10.80;99.90;;;;;;5054812;28;20044;-82
2022/10/10 08:01:15;;;;;;;0.00;0.00;;;10.80;99.90;;;;;;5038381;28;20416;-81
2022/10/10 08:03:41;;;;;;;0.03;0.00;;;10.90;99.90;;;;;;5054387;28;20503;-81
2022/10/10 08:06:13;;;;;;;0.00;0.00;;;10.90;99.90;;;;;;5038770;28;20053;-81
2022/10/10 08:08:39;;;;;;;2.92;1.75;;;10.90;99.90;;;;;;5071742;28;20090;-82
2022/10/10 08:11:06;;;;;;;0.00;0.00;;;11.70;99.90;;;;;;5037891;28;20061;-82
2022/10/10 08:13:33;;;;;;;0.00;0.00;;;11.00;99.90;;;;;;5038095;28;20049;-87
2022/10/10 08:16:00;;;;;;;0.85;0.20;;;11.20;99.90;;;;;;5037944;28;20052;-80
2022/10/10 08:18:26;;;;;;;0.32;0.10;;;11.20;99.90;;;;;;5037988;28;20055;-81
2022/10/10 08:21:03;;;;;;;0.00;0.00;;;11.30;99.90;;;;;;5054740;28;20053;-83
2022/10/10 08:23:29;;;;;;;0.38;0.38;;;11.30;99.90;;;;;;5038264;28;20053;-83
2022/10/10 08:26:00;;;;;;;0.00;0.00;;;11.30;99.90;;;;;;5038325;28;20044;-83
2022/10/10 08:28:26;;;;;;;0.00;0.00;;;11.50;99.90;;;;;;5037881;28;20550;-83
2022/10/10 08:30:52;;;;;;;0.15;0.15;;;11.60;99.90;;;;;;5054806;28;20041;-82
2022/10/10 08:33:17;;;;;;;0.00;0.00;;;11.80;99.90;;;;;;5068094;28;20105;-82
2022/10/10 08:35:43;;;;;;;0.38;0.00;;;11.90;99.90;;;;;;5048578;28;20079;-82
2022/10/10 08:38:09;;;;;;;0.00;0.00;;;12.00;99.90;;;;;;5060525;28;20041;-83
2022/10/10 08:40:47;;;;;;;0.00;0.00;;;12.00;99.90;;;;;;5054096;28;20052;-85
2022/10/10 08:43:35;;;;;;;0.00;0.00;;;12.10;99.90;;;;;;5037650;28;20060;-82
2022/10/10 08:46:13;;;;;;;0.00;0.00;;;12.30;99.90;;;;;;5037141;28;20500;-83
2022/10/10 08:48:40;;;;;;;0.00;0.00;;;12.40;99.90;;;;;;5037360;28;20515;-83
2022/10/10 08:51:09;;;;;;;0.47;0.32;;;12.60;99.90;;;;;;5054319;28;20404;-82
2022/10/10 08:53:42;;;;;;;0.00;0.00;;;12.70;99.90;;;;;;5053970;28;20080;-82
2022/10/10 08:56:16;;;;;;;0.20;0.05;;;12.60;99.90;;;;;;5054018;28;20044;-83
2022/10/10 08:58:47;;;;;;;0.13;0.13;;;12.60;99.90;;;;;;5054351;28;20045;-83
2022/10/10 09:01:23;;;;;;;0.00;0.00;;;12.90;99.90;;;;;;5053919;28;20051;-83
2022/10/10 09:03:58;;;;;;;0.00;0.00;;;13.20;99.90;;;;;;5037413;28;20057;-83
2022/10/10 09:06:42;;;;;;;0.00;0.00;;;13.50;99.90;;;;;;5037661;28;20052;-90
2022/10/10 09:09:30;;;;;;;0.00;0.00;;;13.60;99.90;;;;;;5054086;28;20057;-81
2022/10/10 09:11:59;;;;;;;3.58;0.08;;;13.60;99.90;;;;;;5053504;28;20076;-83
2022/10/10 09:14:45;;;;;;;0.40;0.00;;;13.90;99.90;;;;;;5036894;28;20144;-83
2022/10/10 09:17:29;;;;;;;1.33;0.50;;;13.90;99.90;;;;;;5053827;28;20041;-83
2022/10/10 09:19:54;;;;;;;0.10;0.03;;;14.00;99.90;;;;;;5036778;28;20481;-83
2022/10/10 09:22:25;;;;;;;0.00;0.00;;;14.00;99.90;;;;;;5036514;28;20055;-83
2022/10/10 09:24:57;;;;;;;1.05;0.45;;;14.00;99.90;;;;;;5053126;28;20037;-84
2022/10/10 09:27:29;;;;;;;0.00;0.00;;;14.00;99.90;;;;;;5053586;28;20099;-82
2022/10/10 09:30:18;;;;;;;0.00;0.00;;;14.00;99.90;;;;;;5037182;28;20156;-83
2022/10/10 09:32:54;;;;;;;0.10;0.10;;;14.30;99.90;;;;;;5053145;28;20480;-82
2022/10/10 09:35:34;;;;;;;0.00;0.00;;;14.40;99.90;;;;;;5036373;28;20483;-83
2022/10/10 09:38:31;;;;;;;0.00;0.00;;;14.70;99.90;;;;;;5036912;28;20052;-84
2022/10/10 09:41:01;;;;;;;0.00;0.00;;;14.70;99.90;;;;;;4980052;28;20050;-84
2022/10/10 09:43:32;;;;;;;0.10;0.00;;;14.80;99.90;;;;;;5012398;28;20058;-84
2022/10/10 09:45:58;;;;;;;0.00;0.00;;;15.00;99.90;;;;;;5029061;28;20046;-83
2022/10/10 09:48:41;;;;;;;0.00;0.00;;;15.00;99.90;;;;;;5012662;28;20228;-84
2022/10/10 09:51:15;;;;;;;0.00;0.00;;;15.10;99.90;;;;;;5028850;28;20046;-84
2022/10/10 09:53:42;;;;;;;0.00;0.00;;;15.30;99.90;;;;;;5012731;28;20096;-84
2022/10/10 09:56:18;;;;;;;0.00;0.00;;;15.50;99.90;;;;;;5012367;28;20088;-85
2022/10/10 09:58:49;;;;;;;0.00;0.00;;;15.70;99.90;;;;;;5012849;28;20050;-83
2022/10/10 10:01:22;;;;;;;0.00;0.00;;;16.20;99.90;;;;;;5029328;28;20062;-85
2022/10/10 10:04:08;;;;;;;0.28;0.28;;;16.40;99.90;;;;;;4979517;28;20077;-83
2022/10/10 10:06:35;;;;;;;0.00;0.00;;;16.60;99.90;;;;;;4979602;28;20096;-82
2022/10/10 10:09:03;;;;;;;0.00;0.00;;;16.60;99.90;;;;;;5011929;28;20052;-83
2022/10/10 10:11:34;;;;;;;0.10;0.10;;;16.60;99.90;;;;;;5012182;28;20050;-83
2022/10/10 10:14:01;;;;;;;0.10;0.00;;;16.60;99.90;;;;;;5012193;28;20220;-84
2022/10/10 10:16:38;;;;;;;0.08;0.08;;;16.60;99.90;;;;;;5007548;28;20422;-85
2022/10/10 10:19:24;;;;;;;0.10;0.10;;;16.70;99.90;;;;;;5029014;28;20110;-84
2022/10/10 10:21:51;;;;;;;0.00;0.00;;;16.70;99.90;;;;;;5035837;28;20072;-83
2022/10/10 10:24:23;;;;;;;0.00;0.00;;;16.70;99.90;;;;;;5064024;28;20049;-83
2022/10/10 10:26:50;;;;;;;0.00;0.00;;;16.90;99.90;;;;;;5047080;28;20049;-82
2022/10/10 10:29:28;;;;;;;0.00;0.00;;;16.90;99.90;;;;;;5059239;28;20103;-83
2022/10/10 10:32:14;;;;;;;0.15;0.03;;;17.00;99.90;;;;;;5052792;28;20102;-84
2022/10/10 10:35:10;;;;;;;0.00;0.00;;;16.90;99.90;;;;;;5039312;28;20505;-85
2022/10/10 10:37:56;;;;;;;0.47;0.45;;;17.00;99.90;;;;;;5056644;28;20049;-85
2022/10/10 10:40:29;;;;;;;0.65;0.00;;;16.80;99.90;;;;;;5015382;28;20050;-83
2022/10/10 10:43:15;;;;;;;0.00;0.00;;;16.70;99.90;;;;;;4999261;28;20494;-83
2022/10/10 10:46:06;;;;;;;0.47;0.10;;;16.60;99.90;;;;;;4998842;28;20594;-82
2022/10/10 10:49:01;;;;;;;0.00;0.00;;;16.60;99.90;;;;;;4983411;28;20383;-82
2022/10/10 10:52:04;;;;;;;0.00;0.00;;;16.60;99.90;;;;;;4998563;28;20056;-83
2022/10/10 10:54:59;;;;;;;0.00;0.00;;;16.60;99.90;;;;;;4983094;28;20537;-82
2022/10/10 10:57:31;;;;;;;0.10;0.00;;;16.50;99.90;;;;;;4998989;28;20141;-82
2022/10/10 11:00:04;;;;;;;2.40;0.57;;;16.70;99.90;;;;;;4999228;28;20049;-81
2022/10/10 11:02:40;;;;;;;0.00;0.00;;;16.80;99.90;;;;;;4998940;28;20095;-82
2022/10/10 11:05:20;;;;;;;0.20;0.20;;;16.70;99.90;;;;;;4982732;28;20134;-82
2022/10/10 11:08:23;;;;;;;0.22;0.00;;;16.60;99.90;;;;;;4998486;28;20115;-81
2022/10/10 11:10:56;;;;;;;0.10;0.10;;;16.50;99.90;;;;;;4943745;28;20141;-82
2022/10/10 11:13:33;;;;;;;0.00;0.00;;;16.40;99.90;;;;;;4944365;28;20113;-82
2022/10/10 11:16:11;;;;;;;0.00;0.00;;;16.30;99.90;;;;;;4944063;28;20102;-81
2022/10/10 11:18:59;;;;;;;0.00;0.00;;;16.20;99.90;;;;;;5016924;28;20061;-81
2022/10/10 11:21:28;;;;;;;0.00;0.00;;;16.20;99.90;;;;;;5002146;28;20057;-82
2022/10/10 11:24:10;;;;;;;0.00;0.00;;;16.20;99.90;;;;;;5001942;28;20053;-82
2022/10/10 11:26:42;;;;;;;0.00;0.00;;;16.10;99.90;;;;;;4998070;28;20128;-82
2022/10/10 11:29:13;;;;;;;0.00;0.00;;;16.00;99.90;;;;;;4982538;28;20054;-82
2022/10/10 11:32:01;;;;;;;0.10;0.10;;;16.00;99.90;;;;;;5031416;28;20058;-82
2022/10/10 11:34:41;;;;;;;2.35;0.10;;;16.00;99.90;;;;;;4982109;28;20062;-82
2022/10/10 11:37:16;;;;;;;0.00;0.00;;;16.00;99.90;;;;;;5031106;28;20448;-82
2022/10/10 11:39:54;;;;;;;0.00;0.00;;;16.10;99.90;;;;;;4998121;28;20148;-83
2022/10/10 11:42:44;;;;;;;0.00;0.00;;;16.00;99.90;;;;;;5030896;28;20045;-83
2022/10/10 11:45:20;;;;;;;0.32;0.08;;;16.10;99.90;;;;;;4997715;28;20117;-81
2022/10/10 11:48:06;;;;;;;0.00;0.00;;;16.10;99.90;;;;;;5052066;28;20049;-81
2022/10/10 11:50:38;;;;;;;0.00;0.00;;;16.10;99.90;;;;;;5018393;28;20457;-81
2022/10/10 11:53:12;;;;;;;0.00;0.00;;;16.20;99.90;;;;;;5018823;28;20053;-81
2022/10/10 11:55:49;;;;;;;6.13;0.88;;;16.30;99.90;;;;;;5035052;28;20516;-81
2022/10/10 11:58:44;;;;;;;0.52;0.32;;;16.20;99.90;;;;;;5025081;28;20063;-81
2022/10/10 12:01:33;;;;;;;0.00;0.00;;;16.20;99.90;;;;;;5052257;28;20089;-82
2022/10/10 12:03:59;;;;;;;0.00;0.00;;;16.10;99.90;;;;;;5035340;28;20061;-83
2022/10/10 12:06:49;;;;;;;0.00;0.00;;;16.00;99.90;;;;;;5036650;28;20053;-83
2022/10/10 12:09:57;;;;;;;0.00;0.00;;;15.90;99.90;;;;;;5052371;28;20154;-83
2022/10/10 12:12:37;;;;;;;0.20;0.10;;;15.80;99.90;;;;;;5012860;28;20494;-82
2022/10/10 12:15:05;;;;;;;0.00;0.00;;;15.70;99.90;;;;;;4995255;28;20513;-82
2022/10/10 12:17:35;;;;;;;0.00;0.00;;;15.60;99.90;;;;;;4981069;28;20104;-80
2022/10/10 12:20:14;;;;;;;0.25;0.25;;;15.60;99.90;;;;;;4981194;28;20080;-79
2022/10/10 12:22:40;;;;;;;0.00;0.00;;;15.50;99.90;;;;;;4994182;28;20054;-81
2022/10/10 12:25:06;;;;;;;0.00;0.00;;;15.50;99.90;;;;;;4979812;28;20062;-81
2022/10/10 12:27:59;;;;;;;0.35;0.32;;;15.50;99.90;;;;;;5029770;28;20108;-81
2022/10/10 12:30:25;;;;;;;0.10;0.10;;;15.50;99.90;;;;;;4985515;28;20062;-82
2022/10/10 12:32:54;;;;;;;0.00;0.00;;;15.50;99.90;;;;;;4977958;28;20054;-82
2022/10/10 12:35:34;;;;;;;0.22;0.22;;;15.80;99.90;;;;;;4977803;28;20050;-82
2022/10/10 12:38:12;;;;;;;0.00;0.00;;;15.70;99.90;;;;;;5010031;28;20043;-82
2022/10/10 12:40:56;;;;;;;1.25;0.30;;;15.60;99.90;;;;;;5009755;28;20173;-81
2022/10/10 12:43:42;;;;;;;0.00;0.00;;;15.70;99.90;;;;;;5044210;28;20050;-81
2022/10/10 12:46:21;;;;;;;0.00;0.00;;;15.70;99.90;;;;;;5058387;28;20481;-82
2022/10/10 12:49:17;;;;;;;0.10;0.10;;;15.60;99.90;;;;;;5052271;28;20076;-81
2022/10/10 12:51:56;;;;;;;0.00;0.00;;;15.60;99.90;;;;;;5051401;28;20049;-81
2022/10/10 12:54:28;;;;;;;0.00;0.00;;;15.60;99.90;;;;;;5052196;28;20091;-83
2022/10/10 12:57:13;;;;;;;0.00;0.00;;;15.50;99.90;;;;;;5034952;28;20469;-82
2022/10/10 12:59:39;;;;;;;0.00;0.00;;;15.50;99.90;;;;;;5067688;28;20446;-83
2022/10/10 13:02:24;;;;;;;3.20;0.63;;;15.50;99.90;;;;;;5053446;28;20059;-82
2022/10/10 13:04:59;;;;;;;0.00;0.00;;;15.40;99.90;;;;;;5027902;28;20485;-82
2022/10/10 13:07:25;;;;;;;0.00;0.00;;;15.40;99.90;;;;;;5036539;28;20474;-82
2022/10/10 13:09:53;;;;;;;0.00;0.00;;;15.40;99.90;;;;;;5034929;28;20057;-82
2022/10/10 13:12:26;;;;;;;0.28;0.15;;;15.30;99.90;;;;;;5058356;28;20564;-81
2022/10/10 13:14:52;;;;;;;0.00;0.00;;;15.30;99.90;;;;;;5050275;28;20079;-82